East Brunswick, Pennsylvania
Current Conditions -  °F | °C
As of 3:55 AM on Thursday 23 Oct 2014 (Local Time) from KHZL Reporting Station
Overcast Overcast  
Wind Chill:   Ceiling: 700
Heat Index:   Visibility: 10mi
Dew Point:   Wind: 15mph
Humidity: 93%   Direction: 320°NW
Pressure: 29.88"   Gusts: 21mph
Location:  40.7138°N, 75.9395°W
Report Text: KHZL 230755Z AUTO 32013G18KT 10SM OVC007 07/06 A2988 RMK AO2
Loading
Personal Weather Stations






























Interactive Weather Map
Tropical Storm Tracking
New forecast layout! Learn more

10-Day Weather Forecast

Advertisements
Track Severe Weather on mobile